Terminal Aerodrome Forecast
Issued by NWS

Home | Current Version | Previous Version | Text Only | Print | Product List | Glossary On
Versions: 1 2 3 4 5 6 7 8 9 10 11 12 13 14
000
FTUS45 KRIW 062331
TAFBPI
TAF
KBPI 062331Z 0700/0724 27008KT P6SM -SHRA VCTS SCT040CB BKN080
     FM070200 34007KT P6SM VCSH FEW045 BKN080
     FM070700 VRB05KT P6SM SCT080 SCT200
     FM071000 VRB03KT P6SM FEW090
     FM071700 VRB04KT P6SM SCT050 SCT090
     FM072100 32005KT P6SM VCTS BKN050CB=

USA.gov is the U.S. government's official web portal to all federal, state and local government web resources and services.